Time;durP1;ratioP1;P1;durP2;ratioP2;P2;SDS_P1;SDS_P2;PMS_P1;PMS_P2;Temp;Humidity;BMP_temperature;BMP_pressure;BME280_temperature;BME280_humidity;BME280_pressure;Samples;Min_cycle;Max_cycle;Signal;HPM_P1;HPM_P2
2022/09/05 00:00:22;;;;;;;;;;;18.30;99.90;;;;;;5054227;28;19928;-90
2022/09/05 00:02:59;;;;;;;;;;;18.30;99.90;;;;;;5045845;28;19925;-90
2022/09/05 00:05:30;;;;;;;;;;;18.30;99.90;;;;;;5019478;28;19925;-89
2022/09/05 00:08:00;;;;;;;;;;;18.40;99.90;;;;;;5036818;28;19933;-90
2022/09/05 00:10:49;;;;;;;;;;;18.30;99.90;;;;;;5035988;28;19925;-90
2022/09/05 00:13:16;;;;;;;;;;;18.30;99.90;;;;;;4990014;28;19932;-89
2022/09/05 00:15:52;;;;;;;;;;;18.20;99.90;;;;;;5019237;28;20262;-89
2022/09/05 00:18:25;;;;;;;;;;;18.20;99.90;;;;;;5019564;28;19980;-89
2022/09/05 00:21:10;;;;;;;;;;;18.10;99.90;;;;;;5036380;28;19931;-89
2022/09/05 00:23:38;;;;;;;;;;;18.10;99.90;;;;;;5035342;28;19925;-89
2022/09/05 00:26:04;;;;;;;;;;;18.00;99.90;;;;;;5037005;28;19925;-89
2022/09/05 00:28:47;;;;;;;;;;;18.00;99.90;;;;;;5037460;28;19929;-89
2022/09/05 00:31:28;;;;;;;;;;;18.00;99.90;;;;;;5040924;28;19925;-90
2022/09/05 00:34:00;;;;;;;;;;;17.90;99.90;;;;;;5068118;28;19935;-90
2022/09/05 00:36:37;;;;;;;;;;;17.90;99.90;;;;;;5058586;28;19924;-89
2022/09/05 00:39:05;;;;;;;;;;;17.90;99.90;;;;;;5055990;28;19947;-87
2022/09/05 00:41:31;;;;;;;;;;;17.80;99.90;;;;;;5055937;28;19924;-89
2022/09/05 00:43:56;;;;;;;;;;;17.70;99.90;;;;;;5018941;28;19947;-89
2022/09/05 00:46:23;;;;;;;;;;;17.70;99.90;;;;;;5034996;28;19925;-90
2022/09/05 00:48:55;;;;;;;;;;;17.70;99.90;;;;;;5036406;28;19998;-90
2022/09/05 00:51:20;;;;;;;;;;;17.70;99.90;;;;;;5035161;28;19929;-89
2022/09/05 00:54:06;;;;;;;;;;;17.70;99.90;;;;;;5035903;28;19925;-89
2022/09/05 00:56:44;;;;;;;;;;;17.70;99.90;;;;;;5036702;28;19925;-89
2022/09/05 00:59:29;;;;;;;;;;;17.60;99.90;;;;;;5037507;28;19929;-89
2022/09/05 01:02:01;;;;;;;;;;;17.60;99.90;;;;;;5019768;28;20377;-90
2022/09/05 01:04:39;;;;;;;;;;;17.60;99.90;;;;;;5036469;28;19987;-90
2022/09/05 01:07:04;;;;;;;;;;;17.60;99.90;;;;;;5053675;28;20007;-90
2022/09/05 01:09:30;;;;;;;;;;;17.50;99.90;;;;;;5036991;28;19983;-89
2022/09/05 01:11:55;;;;;;;;;;;17.50;99.90;;;;;;5037277;28;19925;-89
2022/09/05 01:14:40;;;;;;;;;;;17.50;99.90;;;;;;5037851;28;19932;-89
2022/09/05 01:17:24;;;;;;;;;;;17.50;99.90;;;;;;5046389;28;20366;-90
2022/09/05 01:19:56;;;;;;;;;;;17.50;99.90;;;;;;5048270;28;20012;-89
2022/09/05 01:22:40;;;;;;;;;;;17.50;99.90;;;;;;5059265;28;20338;-89
2022/09/05 01:25:25;;;;;;;;;;;17.50;99.90;;;;;;5047864;28;19932;-89
2022/09/05 01:28:02;;;;;;;;;;;17.40;99.90;;;;;;5044856;28;19932;-90
2022/09/05 01:30:30;;;;;;;;;;;17.40;99.90;;;;;;5058520;28;19924;-90
2022/09/05 01:32:55;;;;;;;;;;;17.40;99.90;;;;;;5056712;28;19992;-90
2022/09/05 01:35:31;;;;;;;;;;;17.30;99.90;;;;;;5056901;28;19998;-90
2022/09/05 01:38:05;;;;;;;;;;;17.30;99.90;;;;;;5039797;28;19977;-90
2022/09/05 01:40:49;;;;;;;;;;;17.30;99.90;;;;;;5050950;28;19980;-91
2022/09/05 01:43:25;;;;;;;;;;;17.30;99.90;;;;;;5046154;28;20330;-90
2022/09/05 01:45:52;;;;;;;;;;;17.20;99.90;;;;;;5038365;28;19929;-91
2022/09/05 01:48:24;;;;;;;;;;;17.20;99.90;;;;;;5058916;28;19924;-92
2022/09/05 01:50:54;;;;;;;;;;;17.10;99.90;;;;;;5067096;28;20025;-91
2022/09/05 01:53:24;;;;;;;;;;;17.10;99.90;;;;;;5067151;28;19936;-90
2022/09/05 01:55:56;;;;;;;;;;;17.00;99.90;;;;;;5065308;28;20029;-90
2022/09/05 01:58:40;;;;;;;;;;;17.00;99.90;;;;;;5064335;28;19925;-91
2022/09/05 02:01:09;;;;;;;;;;;17.00;99.90;;;;;;5060058;28;19925;-91
2022/09/05 02:03:53;;;;;;;;;;;16.90;99.90;;;;;;5046724;28;20339;-90
2022/09/05 02:06:54;;;;;;;;;;;16.80;99.90;;;;;;5053862;28;19925;-90
2022/09/05 02:09:34;;;;;;;;;;;16.80;99.90;;;;;;4973934;28;19974;-90
2022/09/05 02:12:05;;;;;;;;;;;16.70;99.90;;;;;;5026617;28;19975;-90
2022/09/05 02:14:40;;;;;;;;;;;16.60;99.90;;;;;;5038506;28;19931;-89
2022/09/05 02:17:26;;;;;;;;;;;16.60;99.90;;;;;;5046959;28;20316;-89
2022/09/05 02:19:54;;;;;;;;;;;16.50;99.90;;;;;;5017812;28;20427;-89
2022/09/05 02:22:27;;;;;;;;;;;16.50;99.90;;;;;;5017995;28;19999;-87
2022/09/05 02:24:53;;;;;;;;;;;16.50;99.90;;;;;;5033920;28;19931;-90
2022/09/05 02:27:27;;;;;;;;;;;16.40;99.90;;;;;;5034638;28;20406;-90
2022/09/05 02:30:28;;;;;;;;;;;16.40;99.90;;;;;;5034619;28;20043;-90
2022/09/05 02:33:12;;;;;;;;;;;16.30;99.90;;;;;;4938186;29;20403;-90
2022/09/05 02:36:07;;;;;;;;;;;16.20;99.90;;;;;;5028754;28;19948;-90
2022/09/05 02:38:53;;;;;;;;;;;16.20;99.90;;;;;;5033100;28;20385;-90
2022/09/05 02:41:18;;;;;;;;;;;16.20;99.90;;;;;;5035562;28;20318;-89
2022/09/05 02:43:51;;;;;;;;;;;16.20;99.90;;;;;;5050164;28;19933;-89
2022/09/05 02:46:37;;;;;;;;;;;16.20;99.90;;;;;;5033305;28;19925;-89
2022/09/05 02:49:15;;;;;;;;;;;16.10;99.90;;;;;;5019580;28;20392;-90
2022/09/05 02:51:46;;;;;;;;;;;16.00;99.90;;;;;;5033747;28;19931;-90
2022/09/05 02:54:13;;;;;;;;;;;15.90;99.90;;;;;;5033571;28;19926;-90
2022/09/05 02:57:08;;;;;;;;;;;15.80;99.90;;;;;;5016477;28;19973;-90
2022/09/05 02:59:41;;;;;;;;;;;15.80;99.90;;;;;;5026158;28;19964;-90
2022/09/05 03:02:12;;;;;;;;;;;15.70;99.90;;;;;;5032542;28;19932;-91
2022/09/05 03:04:41;;;;;;;;;;;15.70;99.90;;;;;;5017355;28;20303;-90
2022/09/05 03:07:12;;;;;;;;;;;15.70;99.90;;;;;;5019722;28;20348;-90
2022/09/05 03:09:57;;;;;;;;;;;15.60;99.90;;;;;;5033282;28;20027;-90
2022/09/05 03:12:23;;;;;;;;;;;15.60;99.90;;;;;;5034225;28;19925;-90
2022/09/05 03:14:57;;;;;;;;;;;15.60;99.90;;;;;;5031554;28;19979;-90
2022/09/05 03:17:22;;;;;;;;;;;15.60;99.90;;;;;;5016508;28;20377;-90
2022/09/05 03:19:51;;;;;;;;;;;15.50;99.90;;;;;;5036622;28;20024;-90
2022/09/05 03:22:35;;;;;;;;;;;15.50;99.90;;;;;;5040619;28;20345;-90
2022/09/05 03:25:04;;;;;;;;;;;15.40;99.90;;;;;;5032532;28;19972;-91
2022/09/05 03:27:43;;;;;;;;;;;15.40;99.90;;;;;;5032883;28;20387;-91
2022/09/05 03:30:10;;;;;;;;;;;15.30;99.90;;;;;;5016258;28;19976;-90
2022/09/05 03:32:47;;;;;;;;;;;15.30;99.90;;;;;;5034365;28;20396;-91
2022/09/05 03:35:32;;;;;;;;;;;15.20;99.90;;;;;;5032788;28;20369;-91
2022/09/05 03:38:09;;;;;;;;;;;15.20;99.90;;;;;;5032353;28;19980;-90
2022/09/05 03:40:38;;;;;;;;;;;15.20;99.90;;;;;;5016353;28;20013;-90
2022/09/05 03:43:12;;;;;;;;;;;15.30;99.90;;;;;;5017576;28;20024;-90
2022/09/05 03:45:45;;;;;;;;;;;15.30;99.90;;;;;;5032555;28;20020;-90
2022/09/05 03:48:30;;;;;;;;;;;15.40;99.90;;;;;;5031676;28;19936;-89
2022/09/05 03:51:04;;;;;;;;;;;15.40;99.90;;;;;;5032092;28;20015;-90
2022/09/05 03:53:34;;;;;;;;;;;15.40;99.90;;;;;;5053703;28;19924;-89
2022/09/05 03:56:03;;;;;;;;;;;15.40;99.90;;;;;;5051885;28;19932;-90
2022/09/05 03:58:33;;;;;;;;;;;15.40;99.90;;;;;;5036202;28;20015;-91
2022/09/05 04:01:02;;;;;;;;;;;15.10;99.90;;;;;;5052348;28;20020;-90
2022/09/05 04:03:32;;;;;;;;;;;15.30;99.90;;;;;;5046839;28;19972;-90
2022/09/05 04:06:05;;;;;;;;;;;15.30;99.90;;;;;;5019139;28;20381;-89
2022/09/05 04:08:35;;;;;;;;;;;15.30;99.90;;;;;;5032073;28;19929;-91
2022/09/05 04:11:07;;;;;;;;;;;15.20;99.90;;;;;;5032057;28;19975;-90
2022/09/05 04:13:34;;;;;;;;;;;15.30;99.90;;;;;;5032508;28;19933;-90
2022/09/05 04:16:02;;;;;;;;;;;15.30;99.90;;;;;;5032371;28;19929;-90
2022/09/05 04:18:28;;;;;;;;;;;15.20;99.90;;;;;;5041187;28;19932;-90
2022/09/05 04:21:14;;;;;;;;;;;15.20;99.90;;;;;;5019568;28;20285;-90
2022/09/05 04:23:49;;;;;;;;;;;15.10;99.90;;;;;;5033434;28;19976;-91
2022/09/05 04:26:29;;;;;;;;;;;15.10;99.90;;;;;;5034435;28;19972;-90
2022/09/05 04:29:07;;;;;;;;;;;15.10;99.90;;;;;;5035693;28;19925;-90
2022/09/05 04:31:51;;;;;;;;;;;15.00;99.90;;;;;;5037483;28;19924;-90
2022/09/05 04:34:20;;;;;;;;;;;14.90;99.90;;;;;;5047234;28;19932;-90
2022/09/05 04:36:46;;;;;;;;;;;14.90;99.90;;;;;;5055506;28;19925;-89
2022/09/05 04:39:17;;;;;;;;;;;15.00;99.90;;;;;;5054817;28;19924;-90
2022/09/05 04:41:58;;;;;;;;;;;14.90;99.90;;;;;;5055672;28;19931;-90
2022/09/05 04:44:32;;;;;;;;;;;14.90;99.90;;;;;;5066091;28;19994;-90
2022/09/05 04:47:02;;;;;;;;;;;14.90;99.90;;;;;;5023654;28;19925;-91
2022/09/05 04:49:29;;;;;;;;;;;15.60;99.90;;;;;;5056250;28;19925;-91
2022/09/05 04:51:54;;;;;;;;;;;14.90;99.90;;;;;;5056341;28;19925;-91
2022/09/05 04:54:38;;;;;;;;;;;14.90;99.90;;;;;;5031640;28;19936;-91
2022/09/05 04:57:07;;;;;;;;;;;14.90;99.90;;;;;;5038461;28;19925;-91
2022/09/05 04:59:56;;;;;;;;;;;15.30;99.90;;;;;;5021862;28;19925;-90
2022/09/05 05:02:38;;;;;;;;;;;14.90;99.90;;;;;;5023767;28;19925;-89
2022/09/05 05:05:24;;;;;;;;;;;14.90;99.90;;;;;;5022388;28;19925;-90
2022/09/05 05:07:57;;;;;;;;;;;14.90;99.90;;;;;;5045991;28;19932;-91
2022/09/05 05:10:35;;;;;;;;;;;14.90;99.90;;;;;;5035665;28;20022;-90
2022/09/05 05:13:03;;;;;;;;;;;14.90;99.90;;;;;;5036213;28;20292;-89
2022/09/05 05:15:28;;;;;;;;;;;15.00;99.90;;;;;;5019874;28;19932;-91
2022/09/05 05:17:57;;;;;;;;;;;15.00;99.90;;;;;;5022483;28;19925;-90
2022/09/05 05:20:27;;;;;;;;;;;15.00;99.90;;;;;;5051846;28;20241;-91
2022/09/05 05:22:56;;;;;;;;;;;15.00;99.90;;;;;;5034985;28;19932;-91
2022/09/05 05:25:22;;;;;;;;;;;15.10;99.90;;;;;;5034659;28;19955;-90
2022/09/05 05:28:08;;;;;;;;;;;15.10;99.90;;;;;;5034473;28;20010;-90
2022/09/05 05:30:33;;;;;;;;;;;15.10;99.90;;;;;;5051230;28;19932;-92
2022/09/05 05:33:09;;;;;;;;;;;15.20;99.90;;;;;;5037011;28;19925;-89
2022/09/05 05:35:34;;;;;;;;;;;15.30;99.90;;;;;;5007677;28;19972;-91
2022/09/05 05:38:16;;;;;;;;;;;15.30;99.90;;;;;;5032132;28;20407;-89
2022/09/05 05:40:49;;;;;;;;;;;15.40;99.90;;;;;;5039833;28;19931;-88
2022/09/05 05:43:35;;;;;;;;;;;15.40;99.90;;;;;;5054992;28;19929;-89
2022/09/05 05:46:01;;;;;;;;;;;15.30;99.90;;;;;;5058944;28;19925;-89
2022/09/05 05:48:36;;;;;;;;;;;15.40;99.90;;;;;;5039324;28;19952;-90
2022/09/05 05:51:22;;;;;;;;;;;15.40;99.90;;;;;;5031089;28;19932;-90
2022/09/05 05:53:57;;;;;;;;;;;15.40;99.90;;;;;;5017656;28;20040;-90
2022/09/05 05:56:37;;;;;;;;;;;15.40;99.90;;;;;;5050205;28;19932;-90
2022/09/05 05:59:21;;;;;;;;;;;15.50;99.90;;;;;;5036522;28;19980;-89
2022/09/05 06:01:56;;;;;;;;;;;15.50;99.90;;;;;;5050663;28;20357;-89
2022/09/05 06:04:40;;;;;;;;;;;15.60;99.90;;;;;;5032401;28;20477;-89
2022/09/05 06:07:24;;;;;;;;;;;15.70;99.90;;;;;;5020644;28;20036;-90
2022/09/05 06:10:09;;;;;;;;;;;16.00;99.90;;;;;;5049773;28;20265;-92
2022/09/05 06:12:38;;;;;;;;;;;16.80;99.90;;;;;;5033754;28;19937;-89
2022/09/05 06:15:24;;;;;;;;;;;17.60;99.90;;;;;;5047070;28;19976;-90
2022/09/05 06:18:09;;;;;;;;;;;18.20;99.90;;;;;;5027360;28;19960;-90
2022/09/05 06:21:10;;;;;;;;;;;18.80;99.90;;;;;;5033029;28;19928;-91
2022/09/05 06:23:51;;;;;;;;;;;19.60;99.90;;;;;;4938891;28;19930;-89
2022/09/05 06:26:31;;;;;;;;;;;20.30;99.90;;;;;;5033480;28;19925;-89
2022/09/05 06:29:11;;;;;;;;;;;20.60;99.90;;;;;;5041295;28;20472;-89
2022/09/05 06:31:55;;;;;;;;;;;21.20;99.90;;;;;;5024497;28;19964;-91
2022/09/05 06:34:28;;;;;;;;;;;21.70;99.90;;;;;;5009999;28;19925;-91
2022/09/05 06:37:03;;;;;;;;;;;22.10;99.90;;;;;;5038270;28;19925;-90
2022/09/05 06:39:40;;;;;;;;;;;22.50;99.90;;;;;;5042397;28;20369;-90
2022/09/05 06:42:24;;;;;;;;;;;23.20;99.90;;;;;;5043546;28;19987;-91
2022/09/05 06:45:00;;;;;;;;;;;22.50;99.90;;;;;;5043496;28;19931;-90
2022/09/05 06:47:25;;;;;;;;;;;24.00;99.90;;;;;;5024282;28;20015;-88
2022/09/05 06:50:10;;;;;;;;;;;22.80;99.90;;;;;;5036156;28;20361;-90
2022/09/05 06:52:36;;;;;;;;;;;23.20;99.90;;;;;;5030877;28;19979;-89
2022/09/05 06:55:01;;;;;;;;;;;23.50;99.90;;;;;;5031382;28;19929;-90
2022/09/05 06:57:36;;;;;;;;;;;24.30;99.90;;;;;;5030970;28;20380;-89
2022/09/05 07:00:10;;;;;;;;;;;24.40;99.90;;;;;;5031517;28;20441;-90
2022/09/05 07:02:40;;;;;;;;;;;24.00;99.90;;;;;;5032616;28;19929;-89
2022/09/05 07:05:09;;;;;;;;;;;24.60;99.80;;;;;;5023957;28;20381;-91
2022/09/05 07:07:36;;;;;;;;;;;24.80;99.80;;;;;;5035669;28;20023;-90
2022/09/05 07:10:03;;;;;;;;;;;24.80;99.60;;;;;;5019751;28;19925;-92
2022/09/05 07:12:31;;;;;;;;;;;24.50;99.80;;;;;;5027684;28;20286;-90
2022/09/05 07:15:00;;;;;;;;;;;24.20;99.30;;;;;;5022970;28;19936;-93
2022/09/05 07:17:35;;;;;;;;;;;24.50;99.70;;;;;;5027198;28;19929;-91
2022/09/05 07:20:01;;;;;;;;;;;25.00;98.90;;;;;;5059582;28;20179;-92
2022/09/05 07:22:32;;;;;;;;;;;25.10;99.60;;;;;;5018705;28;20437;-92
2022/09/05 07:25:01;;;;;;;;;;;25.20;97.90;;;;;;5036056;28;19939;-91
2022/09/05 07:27:33;;;;;;;;;;;25.50;97.90;;;;;;5044125;28;20047;-93
2022/09/05 07:29:58;;;;;;;;;;;25.60;97.60;;;;;;5022085;28;19950;-92
2022/09/05 07:32:24;;;;;;;;;;;25.90;97.40;;;;;;5008782;28;19929;-92
2022/09/05 07:34:50;;;;;;;;;;;25.80;98.10;;;;;;5044774;28;19937;-92
2022/09/05 07:37:17;;;;;;;;;;;26.40;97.30;;;;;;5010117;28;19929;-93
2022/09/05 07:40:08;;;;;;;;;;;26.20;97.20;;;;;;5026708;28;19925;-91
2022/09/05 07:42:55;;;;;;;;;;;26.60;97.10;;;;;;5042144;28;19925;-92
2022/09/05 07:45:23;;;;;;;;;;;26.80;96.80;;;;;;5027294;28;19983;-91
2022/09/05 07:47:54;;;;;;;;;;;26.80;96.50;;;;;;5040892;28;19967;-91
2022/09/05 07:50:20;;;;;;;;;;;26.70;96.70;;;;;;5035071;28;19964;-91
2022/09/05 07:52:45;;;;;;;;;;;26.80;96.30;;;;;;5045060;28;19925;-93
2022/09/05 07:55:24;;;;;;;;;;;26.80;96.80;;;;;;5040664;28;20331;-90
2022/09/05 07:57:50;;;;;;;;;;;27.60;96.40;;;;;;5057194;28;19929;-90
2022/09/05 08:00:23;;;;;;;;;;;27.70;95.90;;;;;;5039140;28;19925;-89
2022/09/05 08:02:48;;;;;;;;;;;27.70;96.20;;;;;;5039733;28;20024;-93
2022/09/05 08:05:21;;;;;;;;;;;27.90;95.90;;;;;;5042085;28;20376;-90
2022/09/05 08:07:49;;;;;;;;;;;27.90;95.90;;;;;;5020750;28;19951;-91
2022/09/05 08:10:20;;;;;;;;;;;28.00;96.00;;;;;;5034060;28;19975;-89
2022/09/05 08:12:47;;;;;;;;;;;27.70;96.20;;;;;;5048749;28;19974;-89
2022/09/05 08:15:17;;;;;;;;;;;28.00;96.40;;;;;;5032882;28;19929;-90
2022/09/05 08:17:42;;;;;;;;;;;28.40;95.90;;;;;;5011913;28;20024;-92
2022/09/05 08:20:11;;;;;;;;;;;28.30;96.00;;;;;;5038311;28;20394;-91
2022/09/05 08:22:47;;;;;;;;;;;28.40;96.00;;;;;;5036672;28;19925;-91
2022/09/05 08:25:13;;;;;;;;;;;28.90;95.70;;;;;;5024260;28;19932;-91
2022/09/05 08:27:39;;;;;;;;;;;29.40;95.70;;;;;;5034677;28;19929;-89
2022/09/05 08:30:06;;;;;;;;;;;29.60;95.60;;;;;;5034151;28;19926;-91
2022/09/05 08:32:47;;;;;;;;;;;29.60;94.90;;;;;;5027902;28;19929;-90
2022/09/05 08:35:13;;;;;;;;;;;29.70;95.10;;;;;;5029950;28;20296;-89
2022/09/05 08:37:38;;;;;;;;;;;29.40;95.10;;;;;;5034612;28;19937;-90
2022/09/05 08:40:10;;;;;;;;;;;29.50;95.30;;;;;;5040254;28;19925;-90
2022/09/05 08:42:39;;;;;;;;;;;29.60;95.30;;;;;;5048348;28;20002;-88
2022/09/05 08:45:14;;;;;;;;;;;29.80;94.70;;;;;;5045868;28;19929;-90
2022/09/05 08:47:58;;;;;;;;;;;29.60;94.60;;;;;;5043377;28;19947;-90
2022/09/05 08:50:47;;;;;;;;;;;29.70;94.80;;;;;;5034826;28;19947;-88
2022/09/05 08:53:12;;;;;;;;;;;29.80;94.70;;;;;;5031647;28;19925;-90
2022/09/05 08:55:53;;;;;;;;;;;30.00;94.50;;;;;;5053606;28;19932;-90
2022/09/05 08:58:34;;;;;;;;;;;29.80;94.70;;;;;;5035316;28;19933;-90
2022/09/05 09:01:06;;;;;;;;;;;29.30;95.00;;;;;;5035274;28;20425;-89
2022/09/05 09:03:55;;;;;;;;;;;30.20;94.70;;;;;;5044054;28;19932;-91
2022/09/05 09:06:23;;;;;;;;;;;30.10;94.70;;;;;;4977277;28;19940;-91
2022/09/05 09:08:55;;;;;;;;;;;30.00;94.60;;;;;;5044602;28;19935;-90
2022/09/05 09:11:29;;;;;;;;;;;29.90;94.90;;;;;;5044230;28;19933;-90
2022/09/05 09:14:15;;;;;;;;;;;29.70;94.90;;;;;;5027772;28;19929;-90
2022/09/05 09:16:47;;;;;;;;;;;30.00;95.00;;;;;;5040191;28;19933;-90
2022/09/05 09:19:19;;;;;;;;;;;30.10;94.90;;;;;;5042417;28;19932;-90
2022/09/05 09:21:47;;;;;;;;;;;30.30;94.70;;;;;;5042520;28;20020;-90
2022/09/05 09:24:22;;;;;;;;;;;30.40;94.30;;;;;;5042879;28;19925;-93
2022/09/05 09:26:55;;;;;;;;;;;30.40;94.40;;;;;;5042224;28;20020;-93
2022/09/05 09:29:21;;;;;;;;;;;31.00;94.20;;;;;;5043401;28;19929;-90
2022/09/05 09:32:05;;;;;;;;;;;30.50;94.40;;;;;;5029557;28;19925;-89
2022/09/05 09:34:39;;;;;;;;;;;30.60;94.60;;;;;;5041558;28;19929;-89
2022/09/05 09:37:17;;;;;;;;;;;31.40;94.00;;;;;;5045088;28;19932;-89
2022/09/05 09:39:51;;;;;;;;;;;31.40;93.70;;;;;;5041776;28;19986;-89
2022/09/05 09:42:35;;;;;;;;;;;31.60;93.80;;;;;;5039188;28;19952;-89
2022/09/05 09:45:16;;;;;;;;;;;31.70;93.60;;;;;;5045581;28;20258;-90
2022/09/05 09:47:54;;;;;;;;;;;31.50;94.10;;;;;;5041574;28;19968;-90
2022/09/05 09:50:22;;;;;;;;;;;31.20;93.60;;;;;;5042089;28;19980;-90
2022/09/05 09:53:12;;;;;;;;;;;31.20;93.80;;;;;;5022535;28;19992;-90
2022/09/05 09:55:41;;;;;;;;;;;31.60;93.60;;;;;;5043502;28;19929;-90
2022/09/05 09:58:30;;;;;;;;;;;31.50;93.80;;;;;;5037653;28;19951;-90
2022/09/05 10:01:02;;;;;;;;;;;31.40;93.90;;;;;;5004026;28;20285;-89
2022/09/05 10:03:46;;;;;;;;;;;31.30;93.90;;;;;;5032315;28;20250;-91
2022/09/05 10:06:15;;;;;;;;;;;31.00;93.90;;;;;;5031314;28;19925;-94
2022/09/05 10:08:40;;;;;;;;;;;30.70;94.10;;;;;;5033851;28;20322;-92
2022/09/05 10:11:09;;;;;;;;;;;31.50;93.60;;;;;;5023856;28;19929;-92
2022/09/05 10:13:47;;;;;;;;;;;31.60;93.70;;;;;;5023859;28;20313;-92
2022/09/05 10:16:12;;;;;;;;;;;31.30;93.60;;;;;;5041570;28;19929;-92
2022/09/05 10:18:53;;;;;;;;;;;31.20;93.30;;;;;;5027125;28;19975;-91
2022/09/05 10:21:18;;;;;;;;;;;31.20;93.30;;;;;;5032517;28;19948;-91
2022/09/05 10:23:47;;;;;;;;;;;31.40;93.60;;;;;;5043611;28;19924;-90
2022/09/05 10:26:32;;;;;;;;;;;29.40;92.60;;;;;;5016496;28;20296;-92
2022/09/05 10:28:57;;;;;;;;;;;31.00;93.40;;;;;;5038452;28;19933;-93
2022/09/05 10:31:33;;;;;;;;;;;30.90;94.00;;;;;;5032158;28;19929;-87
2022/09/05 10:34:04;;;;;;;;;;;30.90;93.70;;;;;;5034918;28;20273;-91
2022/09/05 10:36:30;;;;;;;;;;;30.90;93.60;;;;;;5035313;28;19951;-93
2022/09/05 10:39:15;;;;;;;;;;;30.60;93.70;;;;;;5052074;28;19925;-93
2022/09/05 10:41:54;;;;;;;;;;;30.60;93.50;;;;;;5035309;28;20269;-94
2022/09/05 10:44:39;;;;;;;;;;;30.80;93.20;;;;;;5032405;28;20041;-93
2022/09/05 10:47:17;;;;;;;;;;;30.70;93.10;;;;;;5029010;28;19986;-92
2022/09/05 10:49:46;;;;;;;;;;;30.90;93.30;;;;;;5044996;28;19920;-92
2022/09/05 10:52:25;;;;;;;;;;;30.70;93.10;;;;;;5005121;28;19932;-92
2022/09/05 10:54:51;;;;;;;;;;;31.00;93.20;;;;;;5014191;28;19943;-92
2022/09/05 10:57:35;;;;;;;;;;;30.80;93.60;;;;;;5033010;28;19921;-90
2022/09/05 11:00:05;;;;;;;;;;;31.00;92.90;;;;;;5049813;28;19921;-89
2022/09/05 11:02:30;;;;;;;;;;;31.20;93.10;;;;;;5049772;28;19932;-89
2022/09/05 11:05:03;;;;;;;;;;;31.10;93.00;;;;;;5014595;28;19921;-89
2022/09/05 11:07:35;;;;;;;;;;;31.00;93.00;;;;;;5016809;28;19928;-89
2022/09/05 11:10:03;;;;;;;;;;;30.40;93.50;;;;;;5038086;28;20403;-90
2022/09/05 11:12:35;;;;;;;;;;;29.80;93.50;;;;;;5049946;28;20009;-90
2022/09/05 11:15:04;;;;;;;;;;;30.00;93.60;;;;;;5033651;28;20360;-89
2022/09/05 11:17:29;;;;;;;;;;;29.40;94.00;;;;;;5030118;28;19924;-91
2022/09/05 11:19:58;;;;;;;;;;;29.60;94.00;;;;;;5044057;28;19921;-90
2022/09/05 11:22:26;;;;;;;;;;;29.40;94.00;;;;;;5024326;28;19920;-90
2022/09/05 11:25:30;;;;;;;;;;;29.30;94.70;;;;;;5023284;28;19928;-92
2022/09/05 11:27:57;;;;;;;;;;;29.40;94.10;;;;;;5011177;28;19948;-89
2022/09/05 11:30:45;;;;;;;;;;;29.50;94.60;;;;;;5025245;28;19971;-91
2022/09/05 11:33:19;;;;;;;;;;;28.90;94.10;;;;;;5025006;28;19943;-91
2022/09/05 11:35:47;;;;;;;;;;;30.90;94.70;;;;;;5012141;28;20384;-92
2022/09/05 11:38:35;;;;;;;;;;;29.80;94.90;;;;;;5027408;28;20342;-92
2022/09/05 11:41:26;;;;;;;;;;;29.70;93.90;;;;;;5025803;28;19921;-92
2022/09/05 11:44:11;;;;;;;;;;;29.30;93.80;;;;;;5025202;28;20347;-95
2022/09/05 11:46:44;;;;;;;;;;;29.50;94.20;;;;;;5028144;28;19929;-94
2022/09/05 11:49:30;;;;;;;;;;;29.20;94.10;;;;;;5036194;28;20349;-92
2022/09/05 11:52:14;;;;;;;;;;;29.50;94.00;;;;;;5038686;28;20366;-91
2022/09/05 11:54:46;;;;;;;;;;;29.40;93.90;;;;;;5035829;28;20312;-93
2022/09/05 11:57:24;;;;;;;;;;;29.40;94.10;;;;;;5037332;28;19970;-92
2022/09/05 12:00:09;;;;;;;;;;;29.20;94.00;;;;;;5037880;28;19925;-93
2022/09/05 12:02:35;;;;;;;;;;;29.20;94.20;;;;;;5042941;28;19972;-93
2022/09/05 12:05:20;;;;;;;;;;;29.40;93.60;;;;;;5036071;28;19975;-93
2022/09/05 12:07:56;;;;;;;;;;;29.30;93.80;;;;;;5036943;28;19921;-94
2022/09/05 12:10:28;;;;;;;;;;;29.30;93.70;;;;;;5035431;28;19925;-92
2022/09/05 12:13:05;;;;;;;;;;;29.20;93.90;;;;;;5038176;28;19928;-94
2022/09/05 12:15:33;;;;;;;;;;;29.20;94.00;;;;;;5020937;28;20012;-92
2022/09/05 12:17:59;;;;;;;;;;;29.50;93.50;;;;;;5003830;28;19965;-90
2022/09/05 12:20:43;;;;;;;;;;;29.80;93.50;;;;;;5034543;28;19972;-92
2022/09/05 12:23:12;;;;;;;;;;;29.50;93.30;;;;;;5034598;28;19921;-93
2022/09/05 12:25:56;;;;;;;;;;;29.70;93.10;;;;;;5018815;28;19972;-92
2022/09/05 12:28:42;;;;;;;;;;;29.70;92.90;;;;;;5019762;28;19967;-94
2022/09/05 12:31:09;;;;;;;;;;;29.90;93.30;;;;;;5034937;28;19925;-93
2022/09/05 12:33:35;;;;;;;;;;;29.50;93.20;;;;;;5019006;28;19948;-92
2022/09/05 12:36:11;;;;;;;;;;;29.30;93.40;;;;;;5035467;28;19955;-93
2022/09/05 12:38:49;;;;;;;;;;;29.60;93.20;;;;;;5021058;28;20380;-92
2022/09/05 12:41:19;;;;;;;;;;;29.70;93.00;;;;;;5037087;28;19921;-93
2022/09/05 12:43:54;;;;;;;;;;;29.60;93.30;;;;;;5022374;28;20364;-93
2022/09/05 12:46:22;;;;;;;;;;;29.90;93.00;;;;;;5037276;28;20320;-93
2022/09/05 12:48:51;;;;;;;;;;;29.80;92.60;;;;;;5020655;28;20023;-93
2022/09/05 12:51:18;;;;;;;;;;;30.00;92.80;;;;;;5036238;28;20281;-93
2022/09/05 12:53:44;;;;;;;;;;;30.00;93.00;;;;;;5017761;28;19925;-91
2022/09/05 12:56:13;;;;;;;;;;;30.00;93.50;;;;;;5035325;28;19944;-93
2022/09/05 12:58:39;;;;;;;;;;;28.80;92.70;;;;;;5034494;28;19929;-91
2022/09/05 13:01:16;;;;;;;;;;;30.10;92.80;;;;;;5018921;28;19928;-91
2022/09/05 13:03:56;;;;;;;;;;;30.20;92.90;;;;;;5042797;28;19925;-90
2022/09/05 13:06:23;;;;;;;;;;;30.10;92.70;;;;;;5040793;28;20124;-92
2022/09/05 13:08:50;;;;;;;;;;;30.30;93.10;;;;;;5033912;28;19921;-91
2022/09/05 13:11:20;;;;;;;;;;;30.40;92.30;;;;;;5033534;28;19983;-91
2022/09/05 13:13:46;;;;;;;;;;;30.30;92.60;;;;;;5018661;28;19927;-94
2022/09/05 13:16:15;;;;;;;;;;;30.10;92.10;;;;;;5037914;28;19921;-93
2022/09/05 13:18:41;;;;;;;;;;;30.00;92.70;;;;;;5017951;28;20253;-92
2022/09/05 13:21:11;;;;;;;;;;;30.30;92.50;;;;;;5000581;28;19979;-93
2022/09/05 13:23:36;;;;;;;;;;;30.20;92.20;;;;;;5017716;28;19944;-91
2022/09/05 13:26:16;;;;;;;;;;;30.20;92.30;;;;;;5037458;28;20376;-94
2022/09/05 13:28:51;;;;;;;;;;;30.20;92.10;;;;;;5047284;28;20015;-92
2022/09/05 13:31:35;;;;;;;;;;;29.90;92.20;;;;;;5040511;28;20006;-93
2022/09/05 13:34:02;;;;;;;;;;;29.80;92.20;;;;;;5040307;28;19947;-91
2022/09/05 13:36:28;;;;;;;;;;;29.50;92.60;;;;;;5034270;28;19925;-90
2022/09/05 13:39:08;;;;;;;;;;;29.40;92.60;;;;;;5037833;28;20016;-90
2022/09/05 13:41:35;;;;;;;;;;;29.50;92.30;;;;;;5034001;28;19968;-93
2022/09/05 13:44:06;;;;;;;;;;;29.50;92.30;;;;;;5033472;28;19924;-92
2022/09/05 13:46:41;;;;;;;;;;;29.60;92.40;;;;;;5000753;28;20268;-91
2022/09/05 13:49:06;;;;;;;;;;;29.70;92.40;;;;;;5032712;28;19921;-92
2022/09/05 13:51:32;;;;;;;;;;;29.50;92.30;;;;;;5034852;28;19928;-89
2022/09/05 13:54:17;;;;;;;;;;;29.80;92.20;;;;;;5022757;28;19960;-91
2022/09/05 13:56:53;;;;;;;;;;;29.80;92.50;;;;;;5049280;28;19921;-90
2022/09/05 13:59:19;;;;;;;;;;;29.70;91.80;;;;;;5045619;28;20039;-88
2022/09/05 14:02:11;;;;;;;;;;;29.50;91.80;;;;;;5042453;28;19954;-90
2022/09/05 14:04:46;;;;;;;;;;;29.60;91.60;;;;;;5036469;28;19925;-90
2022/09/05 14:07:24;;;;;;;;;;;29.40;91.90;;;;;;5050844;28;19956;-91
2022/09/05 14:10:05;;;;;;;;;;;29.50;92.10;;;;;;5045112;28;19949;-89
2022/09/05 14:12:36;;;;;;;;;;;29.40;92.20;;;;;;5044150;28;20026;-90
2022/09/05 14:15:10;;;;;;;;;;;29.80;92.30;;;;;;5045888;28;19925;-90
2022/09/05 14:17:56;;;;;;;;;;;29.40;92.30;;;;;;5052496;28;20365;-90
2022/09/05 14:23:08;;;;;;;;;;;29.50;92.50;;;;;;5025441;28;19928;-90
2022/09/05 14:25:38;;;;;;;;;;;29.50;92.40;;;;;;5011372;28;19921;-88
2022/09/05 14:28:04;;;;;;;;;;;29.60;92.20;;;;;;5023174;28;19928;-90
2022/09/05 14:30:31;;;;;;;;;;;29.70;92.10;;;;;;5025837;28;20304;-91
2022/09/05 14:33:06;;;;;;;;;;;29.90;91.60;;;;;;5042050;28;19925;-90
2022/09/05 14:35:34;;;;;;;;;;;29.80;91.70;;;;;;5021303;28;20306;-91
2022/09/05 14:38:07;;;;;;;;;;;29.70;92.20;;;;;;5027912;28;20032;-93
2022/09/05 14:40:35;;;;;;;;;;;29.80;92.00;;;;;;5035888;28;19924;-91
2022/09/05 14:43:20;;;;;;;;;;;30.00;92.20;;;;;;5033697;28;19929;-92
2022/09/05 14:46:01;;;;;;;;;;;29.90;91.90;;;;;;5030419;28;20402;-91
2022/09/05 14:48:31;;;;;;;;;;;29.90;92.10;;;;;;5029447;28;20659;-91
2022/09/05 14:51:12;;;;;;;;;;;29.90;92.00;;;;;;5023310;28;19928;-91
2022/09/05 14:53:54;;;;;;;;;;;30.00;91.80;;;;;;5041974;28;19953;-91
2022/09/05 14:56:39;;;;;;;;;;;29.80;91.90;;;;;;5040152;28;19929;-91
2022/09/05 14:59:11;;;;;;;;;;;29.80;91.70;;;;;;5052501;28;19925;-90